sensor_id;sensor_type;location;lat;lon;timestamp;temperature;humidity
2112;DHT22;1062;52.538;13.400;2024-02-23T00:01:05;10.30;99.90
2112;DHT22;1062;52.538;13.400;2024-02-23T00:03:31;10.30;99.90
2112;DHT22;1062;52.538;13.400;2024-02-23T00:05:58;10.40;99.90
2112;DHT22;1062;52.538;13.400;2024-02-23T00:08:24;10.30;99.90
2112;DHT22;1062;52.538;13.400;2024-02-23T00:10:49;10.30;99.90
2112;DHT22;1062;52.538;13.400;2024-02-23T00:13:15;10.30;99.90
2112;DHT22;1062;52.538;13.400;2024-02-23T00:15:41;10.30;99.90
2112;DHT22;1062;52.538;13.400;2024-02-23T00:18:06;10.40;99.90
2112;DHT22;1062;52.538;13.400;2024-02-23T00:20:33;10.50;99.90
2112;DHT22;1062;52.538;13.400;2024-02-23T00:22:59;10.50;99.90
2112;DHT22;1062;52.538;13.400;2024-02-23T00:25:24;10.50;99.90
2112;DHT22;1062;52.538;13.400;2024-02-23T00:27:50;10.60;99.90
2112;DHT22;1062;52.538;13.400;2024-02-23T00:30:16;10.60;99.90
2112;DHT22;1062;52.538;13.400;2024-02-23T00:32:41;10.60;99.90
2112;DHT22;1062;52.538;13.400;2024-02-23T00:35:07;10.60;99.90
2112;DHT22;1062;52.538;13.400;2024-02-23T00:37:32;10.60;99.90
2112;DHT22;1062;52.538;13.400;2024-02-23T00:40:04;10.60;99.90
2112;DHT22;1062;52.538;13.400;2024-02-23T00:42:31;10.60;99.90
2112;DHT22;1062;52.538;13.400;2024-02-23T00:44:56;10.50;99.90
2112;DHT22;1062;52.538;13.400;2024-02-23T00:47:22;10.50;99.90
2112;DHT22;1062;52.538;13.400;2024-02-23T00:49:47;10.50;99.90
2112;DHT22;1062;52.538;13.400;2024-02-23T00:52:13;10.50;99.90
2112;DHT22;1062;52.538;13.400;2024-02-23T00:54:39;10.50;99.90
2112;DHT22;1062;52.538;13.400;2024-02-23T00:57:05;10.50;99.90
2112;DHT22;1062;52.538;13.400;2024-02-23T00:59:30;10.50;99.90
2112;DHT22;1062;52.538;13.400;2024-02-23T01:01:56;10.50;99.90
2112;DHT22;1062;52.538;13.400;2024-02-23T01:04:22;10.60;99.90
2112;DHT22;1062;52.538;13.400;2024-02-23T01:06:47;10.60;99.90
2112;DHT22;1062;52.538;13.400;2024-02-23T01:09:13;10.60;99.90
2112;DHT22;1062;52.538;13.400;2024-02-23T01:11:41;10.50;99.90
2112;DHT22;1062;52.538;13.400;2024-02-23T01:14:07;10.60;99.90
2112;DHT22;1062;52.538;13.400;2024-02-23T01:16:32;10.50;99.90
2112;DHT22;1062;52.538;13.400;2024-02-23T01:18:58;10.50;99.90
2112;DHT22;1062;52.538;13.400;2024-02-23T01:21:23;10.50;99.90
2112;DHT22;1062;52.538;13.400;2024-02-23T01:23:49;10.60;99.90
2112;DHT22;1062;52.538;13.400;2024-02-23T01:26:15;10.60;99.90
2112;DHT22;1062;52.538;13.400;2024-02-23T01:28:40;10.60;99.90
2112;DHT22;1062;52.538;13.400;2024-02-23T01:31:09;10.60;99.90
2112;DHT22;1062;52.538;13.400;2024-02-23T01:33:36;10.70;99.90
2112;DHT22;1062;52.538;13.400;2024-02-23T01:36:04;10.70;99.90
2112;DHT22;1062;52.538;13.400;2024-02-23T01:38:30;10.70;99.90
2112;DHT22;1062;52.538;13.400;2024-02-23T01:40:58;10.80;99.90
2112;DHT22;1062;52.538;13.400;2024-02-23T01:43:24;10.70;99.90
2112;DHT22;1062;52.538;13.400;2024-02-23T01:45:49;10.80;99.90
2112;DHT22;1062;52.538;13.400;2024-02-23T01:48:15;10.80;99.90
2112;DHT22;1062;52.538;13.400;2024-02-23T01:50:43;10.90;99.90
2112;DHT22;1062;52.538;13.400;2024-02-23T01:53:10;10.90;99.90
2112;DHT22;1062;52.538;13.400;2024-02-23T01:55:37;10.90;99.90
2112;DHT22;1062;52.538;13.400;2024-02-23T01:58:04;10.90;99.90
2112;DHT22;1062;52.538;13.400;2024-02-23T02:00:30;11.00;99.90
2112;DHT22;1062;52.538;13.400;2024-02-23T02:02:57;11.00;99.90
2112;DHT22;1062;52.538;13.400;2024-02-23T02:05:22;11.10;99.90
2112;DHT22;1062;52.538;13.400;2024-02-23T02:07:50;11.10;99.90
2112;DHT22;1062;52.538;13.400;2024-02-23T02:10:20;11.10;99.90
2112;DHT22;1062;52.538;13.400;2024-02-23T02:12:46;11.10;99.90
2112;DHT22;1062;52.538;13.400;2024-02-23T02:15:11;11.10;99.90
2112;DHT22;1062;52.538;13.400;2024-02-23T02:17:37;11.10;99.90
2112;DHT22;1062;52.538;13.400;2024-02-23T02:20:03;11.10;99.90
2112;DHT22;1062;52.538;13.400;2024-02-23T02:22:32;11.00;99.90
2112;DHT22;1062;52.538;13.400;2024-02-23T02:24:58;11.00;99.90
2112;DHT22;1062;52.538;13.400;2024-02-23T02:27:24;11.00;99.90
2112;DHT22;1062;52.538;13.400;2024-02-23T02:29:50;11.00;99.90
2112;DHT22;1062;52.538;13.400;2024-02-23T02:32:16;11.00;99.90
2112;DHT22;1062;52.538;13.400;2024-02-23T02:34:42;10.90;99.90
2112;DHT22;1062;52.538;13.400;2024-02-23T02:37:08;10.90;99.90
2112;DHT22;1062;52.538;13.400;2024-02-23T02:39:34;10.90;99.90
2112;DHT22;1062;52.538;13.400;2024-02-23T02:41:59;10.80;99.90
2112;DHT22;1062;52.538;13.400;2024-02-23T02:44:25;10.70;99.90
2112;DHT22;1062;52.538;13.400;2024-02-23T02:46:52;10.70;99.90
2112;DHT22;1062;52.538;13.400;2024-02-23T02:49:17;10.60;99.90
2112;DHT22;1062;52.538;13.400;2024-02-23T02:51:43;10.60;99.90
2112;DHT22;1062;52.538;13.400;2024-02-23T02:54:10;10.40;99.90
2112;DHT22;1062;52.538;13.400;2024-02-23T02:56:36;10.40;99.90
2112;DHT22;1062;52.538;13.400;2024-02-23T02:59:01;10.40;99.90
2112;DHT22;1062;52.538;13.400;2024-02-23T03:01:27;10.30;99.90
2112;DHT22;1062;52.538;13.400;2024-02-23T03:03:52;10.30;99.90
2112;DHT22;1062;52.538;13.400;2024-02-23T03:06:18;10.30;99.90
2112;DHT22;1062;52.538;13.400;2024-02-23T03:08:44;10.20;99.90
2112;DHT22;1062;52.538;13.400;2024-02-23T03:11:09;10.20;99.90
2112;DHT22;1062;52.538;13.400;2024-02-23T03:13:35;10.10;99.90
2112;DHT22;1062;52.538;13.400;2024-02-23T03:16:00;10.00;99.90
2112;DHT22;1062;52.538;13.400;2024-02-23T03:18:26;10.00;99.90
2112;DHT22;1062;52.538;13.400;2024-02-23T03:20:54;10.00;99.90
2112;DHT22;1062;52.538;13.400;2024-02-23T03:23:20;10.00;99.90
2112;DHT22;1062;52.538;13.400;2024-02-23T03:25:46;9.90;99.90
2112;DHT22;1062;52.538;13.400;2024-02-23T03:28:12;9.90;99.90
2112;DHT22;1062;52.538;13.400;2024-02-23T03:30:37;9.90;99.90
2112;DHT22;1062;52.538;13.400;2024-02-23T03:33:03;9.80;99.90
2112;DHT22;1062;52.538;13.400;2024-02-23T03:35:28;9.80;99.90
2112;DHT22;1062;52.538;13.400;2024-02-23T03:37:54;9.70;99.90
2112;DHT22;1062;52.538;13.400;2024-02-23T03:40:20;9.70;99.90
2112;DHT22;1062;52.538;13.400;2024-02-23T03:42:45;9.70;99.90
2112;DHT22;1062;52.538;13.400;2024-02-23T03:45:11;9.70;99.90
2112;DHT22;1062;52.538;13.400;2024-02-23T03:47:38;9.70;99.90
2112;DHT22;1062;52.538;13.400;2024-02-23T03:50:04;9.60;99.90
2112;DHT22;1062;52.538;13.400;2024-02-23T03:52:30;9.60;99.90
2112;DHT22;1062;52.538;13.400;2024-02-23T03:54:55;9.60;99.90
2112;DHT22;1062;52.538;13.400;2024-02-23T03:57:21;9.60;99.90
2112;DHT22;1062;52.538;13.400;2024-02-23T03:59:54;9.60;99.90
2112;DHT22;1062;52.538;13.400;2024-02-23T04:02:19;9.60;99.90
2112;DHT22;1062;52.538;13.400;2024-02-23T04:04:45;9.60;99.90
2112;DHT22;1062;52.538;13.400;2024-02-23T04:07:11;9.50;99.90
2112;DHT22;1062;52.538;13.400;2024-02-23T04:09:37;9.50;99.90
2112;DHT22;1062;52.538;13.400;2024-02-23T04:12:03;9.50;99.90
2112;DHT22;1062;52.538;13.400;2024-02-23T04:14:28;9.40;99.90
2112;DHT22;1062;52.538;13.400;2024-02-23T04:16:54;9.50;99.90
2112;DHT22;1062;52.538;13.400;2024-02-23T04:19:19;9.50;99.90
2112;DHT22;1062;52.538;13.400;2024-02-23T04:21:45;9.40;99.90
2112;DHT22;1062;52.538;13.400;2024-02-23T04:24:12;9.30;99.90
2112;DHT22;1062;52.538;13.400;2024-02-23T04:26:37;9.40;99.90
2112;DHT22;1062;52.538;13.400;2024-02-23T04:29:03;9.30;99.90
2112;DHT22;1062;52.538;13.400;2024-02-23T04:31:28;9.20;99.90
2112;DHT22;1062;52.538;13.400;2024-02-23T04:33:54;9.20;99.90
2112;DHT22;1062;52.538;13.400;2024-02-23T04:36:20;9.10;99.90
2112;DHT22;1062;52.538;13.400;2024-02-23T04:38:48;9.10;99.90
2112;DHT22;1062;52.538;13.400;2024-02-23T04:41:14;9.20;99.90
2112;DHT22;1062;52.538;13.400;2024-02-23T04:43:39;9.20;99.90
2112;DHT22;1062;52.538;13.400;2024-02-23T04:46:05;9.10;99.90
2112;DHT22;1062;52.538;13.400;2024-02-23T04:48:30;9.10;99.90
2112;DHT22;1062;52.538;13.400;2024-02-23T04:50:57;9.10;99.90
2112;DHT22;1062;52.538;13.400;2024-02-23T04:53:23;9.10;99.90
2112;DHT22;1062;52.538;13.400;2024-02-23T04:55:48;9.10;99.90
2112;DHT22;1062;52.538;13.400;2024-02-23T04:58:14;9.10;99.90
2112;DHT22;1062;52.538;13.400;2024-02-23T05:00:40;9.10;99.90
2112;DHT22;1062;52.538;13.400;2024-02-23T05:03:05;9.10;99.90
2112;DHT22;1062;52.538;13.400;2024-02-23T05:05:32;9.10;99.90
2112;DHT22;1062;52.538;13.400;2024-02-23T05:07:58;9.00;99.90
2112;DHT22;1062;52.538;13.400;2024-02-23T05:10:23;9.00;99.90
2112;DHT22;1062;52.538;13.400;2024-02-23T05:12:49;9.10;99.90
2112;DHT22;1062;52.538;13.400;2024-02-23T05:15:15;9.10;99.90
2112;DHT22;1062;52.538;13.400;2024-02-23T05:17:41;9.00;99.90
2112;DHT22;1062;52.538;13.400;2024-02-23T05:20:07;9.00;99.90
2112;DHT22;1062;52.538;13.400;2024-02-23T05:22:36;8.90;99.90
2112;DHT22;1062;52.538;13.400;2024-02-23T05:25:01;8.80;99.90
2112;DHT22;1062;52.538;13.400;2024-02-23T05:27:27;8.70;99.90
2112;DHT22;1062;52.538;13.400;2024-02-23T05:29:53;8.60;99.90
2112;DHT22;1062;52.538;13.400;2024-02-23T05:32:18;8.60;99.90
2112;DHT22;1062;52.538;13.400;2024-02-23T05:34:44;8.40;99.90
2112;DHT22;1062;52.538;13.400;2024-02-23T05:37:10;8.40;99.90
2112;DHT22;1062;52.538;13.400;2024-02-23T05:39:36;8.40;99.90
2112;DHT22;1062;52.538;13.400;2024-02-23T05:42:03;8.30;99.90
2112;DHT22;1062;52.538;13.400;2024-02-23T05:44:29;8.20;99.90
2112;DHT22;1062;52.538;13.400;2024-02-23T05:46:55;8.20;99.90
2112;DHT22;1062;52.538;13.400;2024-02-23T05:49:20;8.10;99.90
2112;DHT22;1062;52.538;13.400;2024-02-23T05:51:46;8.10;99.90
2112;DHT22;1062;52.538;13.400;2024-02-23T05:54:12;8.00;99.90
2112;DHT22;1062;52.538;13.400;2024-02-23T05:56:38;7.90;99.90
2112;DHT22;1062;52.538;13.400;2024-02-23T05:59:03;7.80;99.90
2112;DHT22;1062;52.538;13.400;2024-02-23T06:01:29;7.80;99.90
2112;DHT22;1062;52.538;13.400;2024-02-23T06:03:54;7.70;99.90
2112;DHT22;1062;52.538;13.400;2024-02-23T06:06:20;7.60;99.90
2112;DHT22;1062;52.538;13.400;2024-02-23T06:08:46;7.70;99.90
2112;DHT22;1062;52.538;13.400;2024-02-23T06:11:12;7.70;99.90
2112;DHT22;1062;52.538;13.400;2024-02-23T06:13:37;7.70;99.90
2112;DHT22;1062;52.538;13.400;2024-02-23T06:16:04;7.70;99.90
2112;DHT22;1062;52.538;13.400;2024-02-23T06:18:30;7.70;99.90
2112;DHT22;1062;52.538;13.400;2024-02-23T06:20:55;7.70;99.90
2112;DHT22;1062;52.538;13.400;2024-02-23T06:23:21;7.60;99.90
2112;DHT22;1062;52.538;13.400;2024-02-23T06:25:47;7.60;99.90
2112;DHT22;1062;52.538;13.400;2024-02-23T06:28:13;7.60;99.90
2112;DHT22;1062;52.538;13.400;2024-02-23T06:30:39;7.60;99.90
2112;DHT22;1062;52.538;13.400;2024-02-23T06:33:05;7.60;99.90
2112;DHT22;1062;52.538;13.400;2024-02-23T06:35:32;7.60;99.90
2112;DHT22;1062;52.538;13.400;2024-02-23T06:37:57;7.50;99.90
2112;DHT22;1062;52.538;13.400;2024-02-23T06:40:23;7.50;99.90
2112;DHT22;1062;52.538;13.400;2024-02-23T06:42:49;7.50;99.90
2112;DHT22;1062;52.538;13.400;2024-02-23T06:45:15;7.50;99.90
2112;DHT22;1062;52.538;13.400;2024-02-23T06:47:41;7.60;99.90
2112;DHT22;1062;52.538;13.400;2024-02-23T06:50:09;7.50;99.90
2112;DHT22;1062;52.538;13.400;2024-02-23T06:52:35;7.60;99.90
2112;DHT22;1062;52.538;13.400;2024-02-23T06:55:01;7.60;99.90
2112;DHT22;1062;52.538;13.400;2024-02-23T06:57:26;7.70;99.90
2112;DHT22;1062;52.538;13.400;2024-02-23T06:59:52;7.70;99.90
2112;DHT22;1062;52.538;13.400;2024-02-23T07:02:18;7.70;99.90
2112;DHT22;1062;52.538;13.400;2024-02-23T07:04:44;7.80;99.90
2112;DHT22;1062;52.538;13.400;2024-02-23T07:07:09;7.90;99.90
2112;DHT22;1062;52.538;13.400;2024-02-23T07:09:37;8.00;99.90
2112;DHT22;1062;52.538;13.400;2024-02-23T07:12:03;8.00;99.90
2112;DHT22;1062;52.538;13.400;2024-02-23T07:14:28;8.00;99.90
2112;DHT22;1062;52.538;13.400;2024-02-23T07:16:54;8.00;99.90
2112;DHT22;1062;52.538;13.400;2024-02-23T07:19:19;8.00;99.90
2112;DHT22;1062;52.538;13.400;2024-02-23T07:21:46;8.00;99.90
2112;DHT22;1062;52.538;13.400;2024-02-23T07:24:11;8.10;99.90
2112;DHT22;1062;52.538;13.400;2024-02-23T07:26:37;8.10;99.90
2112;DHT22;1062;52.538;13.400;2024-02-23T07:29:03;8.10;99.90
2112;DHT22;1062;52.538;13.400;2024-02-23T07:31:30;8.00;99.90
2112;DHT22;1062;52.538;13.400;2024-02-23T07:33:55;8.00;99.90
2112;DHT22;1062;52.538;13.400;2024-02-23T07:36:21;8.00;99.90
2112;DHT22;1062;52.538;13.400;2024-02-23T07:38:47;8.00;99.90
2112;DHT22;1062;52.538;13.400;2024-02-23T07:41:14;8.00;99.90
2112;DHT22;1062;52.538;13.400;2024-02-23T07:43:40;8.00;99.90
2112;DHT22;1062;52.538;13.400;2024-02-23T07:46:05;8.00;99.90
2112;DHT22;1062;52.538;13.400;2024-02-23T07:48:36;8.00;99.90
2112;DHT22;1062;52.538;13.400;2024-02-23T07:51:03;8.10;99.90
2112;DHT22;1062;52.538;13.400;2024-02-23T07:53:30;8.00;99.90
2112;DHT22;1062;52.538;13.400;2024-02-23T07:55:55;8.10;99.90
2112;DHT22;1062;52.538;13.400;2024-02-23T07:58:21;8.10;99.90
2112;DHT22;1062;52.538;13.400;2024-02-23T08:00:47;8.10;99.90
2112;DHT22;1062;52.538;13.400;2024-02-23T08:03:13;8.20;99.90
2112;DHT22;1062;52.538;13.400;2024-02-23T08:05:38;8.30;99.90
2112;DHT22;1062;52.538;13.400;2024-02-23T08:08:04;8.50;99.90
2112;DHT22;1062;52.538;13.400;2024-02-23T08:10:32;9.00;99.90
2112;DHT22;1062;52.538;13.400;2024-02-23T08:12:58;9.00;99.90
2112;DHT22;1062;52.538;13.400;2024-02-23T08:15:24;9.40;99.90
2112;DHT22;1062;52.538;13.400;2024-02-23T08:17:49;9.60;99.90
2112;DHT22;1062;52.538;13.400;2024-02-23T08:20:15;10.30;99.90
2112;DHT22;1062;52.538;13.400;2024-02-23T08:22:41;10.00;99.90
2112;DHT22;1062;52.538;13.400;2024-02-23T08:25:06;10.20;99.90
2112;DHT22;1062;52.538;13.400;2024-02-23T08:27:33;10.10;99.90
2112;DHT22;1062;52.538;13.400;2024-02-23T08:29:59;10.20;99.90
2112;DHT22;1062;52.538;13.400;2024-02-23T08:32:24;10.30;99.90
2112;DHT22;1062;52.538;13.400;2024-02-23T08:34:50;10.40;99.90
2112;DHT22;1062;52.538;13.400;2024-02-23T08:37:18;10.10;99.90
2112;DHT22;1062;52.538;13.400;2024-02-23T08:39:44;9.80;99.90
2112;DHT22;1062;52.538;13.400;2024-02-23T08:42:10;9.80;99.90
2112;DHT22;1062;52.538;13.400;2024-02-23T08:44:36;9.70;99.90
2112;DHT22;1062;52.538;13.400;2024-02-23T08:47:04;9.70;99.90
2112;DHT22;1062;52.538;13.400;2024-02-23T08:49:31;9.70;99.90
2112;DHT22;1062;52.538;13.400;2024-02-23T08:51:56;9.50;99.90
2112;DHT22;1062;52.538;13.400;2024-02-23T08:54:25;9.40;99.90
2112;DHT22;1062;52.538;13.400;2024-02-23T08:56:51;9.40;99.90
2112;DHT22;1062;52.538;13.400;2024-02-23T08:59:17;9.30;99.90
2112;DHT22;1062;52.538;13.400;2024-02-23T09:01:42;9.40;99.90
2112;DHT22;1062;52.538;13.400;2024-02-23T09:04:10;9.30;99.90
2112;DHT22;1062;52.538;13.400;2024-02-23T09:06:35;9.40;99.90
2112;DHT22;1062;52.538;13.400;2024-02-23T09:09:01;9.50;99.90
2112;DHT22;1062;52.538;13.400;2024-02-23T09:11:26;9.70;99.90
2112;DHT22;1062;52.538;13.400;2024-02-23T09:13:52;10.30;99.90
2112;DHT22;1062;52.538;13.400;2024-02-23T09:16:18;10.40;99.90
2112;DHT22;1062;52.538;13.400;2024-02-23T09:18:44;10.30;99.90
2112;DHT22;1062;52.538;13.400;2024-02-23T09:21:10;10.20;99.90
2112;DHT22;1062;52.538;13.400;2024-02-23T09:23:35;10.50;99.90
2112;DHT22;1062;52.538;13.400;2024-02-23T09:26:01;11.00;99.90
2112;DHT22;1062;52.538;13.400;2024-02-23T09:28:26;11.70;99.90
2112;DHT22;1062;52.538;13.400;2024-02-23T09:30:52;11.60;99.90
2112;DHT22;1062;52.538;13.400;2024-02-23T09:33:17;11.60;99.90
2112;DHT22;1062;52.538;13.400;2024-02-23T09:35:43;11.20;99.90
2112;DHT22;1062;52.538;13.400;2024-02-23T09:38:08;11.00;99.90
2112;DHT22;1062;52.538;13.400;2024-02-23T09:40:34;11.00;99.90
2112;DHT22;1062;52.538;13.400;2024-02-23T09:43:00;10.70;99.90
2112;DHT22;1062;52.538;13.400;2024-02-23T09:45:26;10.50;99.90
2112;DHT22;1062;52.538;13.400;2024-02-23T09:47:56;10.70;99.90
2112;DHT22;1062;52.538;13.400;2024-02-23T09:50:25;10.40;99.90
2112;DHT22;1062;52.538;13.400;2024-02-23T09:52:51;10.50;99.90
2112;DHT22;1062;52.538;13.400;2024-02-23T09:55:17;10.60;99.90
2112;DHT22;1062;52.538;13.400;2024-02-23T09:57:44;10.30;99.90
2112;DHT22;1062;52.538;13.400;2024-02-23T10:00:12;10.60;99.90
2112;DHT22;1062;52.538;13.400;2024-02-23T10:02:39;10.50;99.90
2112;DHT22;1062;52.538;13.400;2024-02-23T10:05:06;10.30;99.90
2112;DHT22;1062;52.538;13.400;2024-02-23T10:07:32;10.00;99.90
2112;DHT22;1062;52.538;13.400;2024-02-23T10:09:58;9.90;99.90
2112;DHT22;1062;52.538;13.400;2024-02-23T10:12:24;10.10;99.90
2112;DHT22;1062;52.538;13.400;2024-02-23T10:14:50;10.30;99.90
2112;DHT22;1062;52.538;13.400;2024-02-23T10:17:15;10.20;99.90
2112;DHT22;1062;52.538;13.400;2024-02-23T10:19:41;10.10;99.90
2112;DHT22;1062;52.538;13.400;2024-02-23T10:22:06;9.90;99.90
2112;DHT22;1062;52.538;13.400;2024-02-23T10:24:32;10.00;99.90
2112;DHT22;1062;52.538;13.400;2024-02-23T10:26:57;10.00;99.90
2112;DHT22;1062;52.538;13.400;2024-02-23T10:29:23;10.00;99.90
2112;DHT22;1062;52.538;13.400;2024-02-23T10:31:51;9.90;99.90
2112;DHT22;1062;52.538;13.400;2024-02-23T10:34:19;9.90;99.90
2112;DHT22;1062;52.538;13.400;2024-02-23T10:36:45;10.10;99.90
2112;DHT22;1062;52.538;13.400;2024-02-23T10:39:16;10.00;99.90
2112;DHT22;1062;52.538;13.400;2024-02-23T10:41:47;10.10;99.90
2112;DHT22;1062;52.538;13.400;2024-02-23T10:44:16;10.30;99.90
2112;DHT22;1062;52.538;13.400;2024-02-23T10:46:41;10.20;99.90
2112;DHT22;1062;52.538;13.400;2024-02-23T10:49:07;10.30;99.90
2112;DHT22;1062;52.538;13.400;2024-02-23T10:51:33;10.40;99.90
2112;DHT22;1062;52.538;13.400;2024-02-23T10:54:00;10.20;99.90
2112;DHT22;1062;52.538;13.400;2024-02-23T10:56:26;10.10;99.90
2112;DHT22;1062;52.538;13.400;2024-02-23T10:58:52;10.40;99.90
2112;DHT22;1062;52.538;13.400;2024-02-23T11:01:19;10.30;99.90
2112;DHT22;1062;52.538;13.400;2024-02-23T11:03:46;10.30;99.90
2112;DHT22;1062;52.538;13.400;2024-02-23T11:06:16;10.40;99.90
2112;DHT22;1062;52.538;13.400;2024-02-23T11:08:46;10.50;99.90
2112;DHT22;1062;52.538;13.400;2024-02-23T11:11:16;10.60;99.90
2112;DHT22;1062;52.538;13.400;2024-02-23T11:13:44;10.40;99.90
2112;DHT22;1062;52.538;13.400;2024-02-23T11:16:10;10.30;99.90
2112;DHT22;1062;52.538;13.400;2024-02-23T11:18:37;10.30;99.90
2112;DHT22;1062;52.538;13.400;2024-02-23T11:21:05;10.10;99.90
2112;DHT22;1062;52.538;13.400;2024-02-23T11:23:48;10.40;99.90
2112;DHT22;1062;52.538;13.400;2024-02-23T11:26:17;10.50;99.90
2112;DHT22;1062;52.538;13.400;2024-02-23T11:28:50;10.50;99.90
2112;DHT22;1062;52.538;13.400;2024-02-23T11:31:28;10.60;99.90
2112;DHT22;1062;52.538;13.400;2024-02-23T11:33:55;10.60;99.90
2112;DHT22;1062;52.538;13.400;2024-02-23T11:36:29;10.40;99.90
2112;DHT22;1062;52.538;13.400;2024-02-23T11:38:57;10.40;99.90
2112;DHT22;1062;52.538;13.400;2024-02-23T11:41:24;10.30;99.90
2112;DHT22;1062;52.538;13.400;2024-02-23T11:43:54;10.40;99.90
2112;DHT22;1062;52.538;13.400;2024-02-23T11:46:21;10.50;99.90
2112;DHT22;1062;52.538;13.400;2024-02-23T11:48:47;10.50;99.90
2112;DHT22;1062;52.538;13.400;2024-02-23T11:51:22;10.50;99.90
2112;DHT22;1062;52.538;13.400;2024-02-23T11:53:48;10.70;99.90
2112;DHT22;1062;52.538;13.400;2024-02-23T11:56:14;10.60;99.90
2112;DHT22;1062;52.538;13.400;2024-02-23T11:58:41;10.50;99.90
2112;DHT22;1062;52.538;13.400;2024-02-23T12:01:07;10.70;99.90
2112;DHT22;1062;52.538;13.400;2024-02-23T12:03:32;10.50;99.90
2112;DHT22;1062;52.538;13.400;2024-02-23T12:06:01;10.40;99.90
2112;DHT22;1062;52.538;13.400;2024-02-23T12:08:29;10.40;99.90
2112;DHT22;1062;52.538;13.400;2024-02-23T12:10:56;10.50;99.90
2112;DHT22;1062;52.538;13.400;2024-02-23T12:13:22;10.40;99.90
2112;DHT22;1062;52.538;13.400;2024-02-23T12:15:48;10.60;99.90
2112;DHT22;1062;52.538;13.400;2024-02-23T12:18:21;10.70;99.90
2112;DHT22;1062;52.538;13.400;2024-02-23T12:20:49;10.70;99.90
2112;DHT22;1062;52.538;13.400;2024-02-23T12:23:15;10.60;99.90
2112;DHT22;1062;52.538;13.400;2024-02-23T12:25:51;10.70;99.90
2112;DHT22;1062;52.538;13.400;2024-02-23T12:28:18;10.80;99.90
2112;DHT22;1062;52.538;13.400;2024-02-23T12:30:44;10.50;99.90
2112;DHT22;1062;52.538;13.400;2024-02-23T12:33:15;10.30;99.90
2112;DHT22;1062;52.538;13.400;2024-02-23T12:35:41;10.40;99.90
2112;DHT22;1062;52.538;13.400;2024-02-23T12:38:06;10.30;99.90
2112;DHT22;1062;52.538;13.400;2024-02-23T12:40:32;10.30;99.90
2112;DHT22;1062;52.538;13.400;2024-02-23T12:42:58;10.30;99.90
2112;DHT22;1062;52.538;13.400;2024-02-23T12:45:23;10.40;99.90
2112;DHT22;1062;52.538;13.400;2024-02-23T12:47:49;10.50;99.90
2112;DHT22;1062;52.538;13.400;2024-02-23T12:50:14;10.30;99.90
2112;DHT22;1062;52.538;13.400;2024-02-23T12:52:40;10.40;99.90
2112;DHT22;1062;52.538;13.400;2024-02-23T12:55:06;10.30;99.90
2112;DHT22;1062;52.538;13.400;2024-02-23T12:57:32;10.40;99.90
2112;DHT22;1062;52.538;13.400;2024-02-23T12:59:57;10.40;99.90
2112;DHT22;1062;52.538;13.400;2024-02-23T13:02:23;10.40;99.90
2112;DHT22;1062;52.538;13.400;2024-02-23T13:04:48;10.50;99.90
2112;DHT22;1062;52.538;13.400;2024-02-23T13:07:17;10.30;99.90
2112;DHT22;1062;52.538;13.400;2024-02-23T13:09:43;10.20;99.90
2112;DHT22;1062;52.538;13.400;2024-02-23T13:12:09;10.20;99.90
2112;DHT22;1062;52.538;13.400;2024-02-23T13:14:35;10.20;99.90
2112;DHT22;1062;52.538;13.400;2024-02-23T13:17:00;10.40;99.90
2112;DHT22;1062;52.538;13.400;2024-02-23T13:19:26;10.40;99.90
2112;DHT22;1062;52.538;13.400;2024-02-23T13:21:52;10.40;99.90
2112;DHT22;1062;52.538;13.400;2024-02-23T13:24:18;10.40;99.90
2112;DHT22;1062;52.538;13.400;2024-02-23T13:26:44;10.30;99.90
2112;DHT22;1062;52.538;13.400;2024-02-23T13:29:09;10.20;99.90
2112;DHT22;1062;52.538;13.400;2024-02-23T13:31:35;10.30;99.90
2112;DHT22;1062;52.538;13.400;2024-02-23T13:34:00;10.20;99.90
2112;DHT22;1062;52.538;13.400;2024-02-23T13:36:26;10.30;99.90
2112;DHT22;1062;52.538;13.400;2024-02-23T13:38:52;10.20;99.90
2112;DHT22;1062;52.538;13.400;2024-02-23T13:41:17;10.10;99.90
2112;DHT22;1062;52.538;13.400;2024-02-23T13:43:43;10.10;99.90
2112;DHT22;1062;52.538;13.400;2024-02-23T13:46:09;10.00;99.90
2112;DHT22;1062;52.538;13.400;2024-02-23T13:48:36;9.90;99.90
2112;DHT22;1062;52.538;13.400;2024-02-23T13:51:01;9.90;99.90
2112;DHT22;1062;52.538;13.400;2024-02-23T13:53:30;10.00;99.90
2112;DHT22;1062;52.538;13.400;2024-02-23T13:55:56;10.00;99.90
2112;DHT22;1062;52.538;13.400;2024-02-23T13:58:22;10.10;99.90
2112;DHT22;1062;52.538;13.400;2024-02-23T14:00:47;10.00;99.90
2112;DHT22;1062;52.538;13.400;2024-02-23T14:03:16;10.10;99.90
2112;DHT22;1062;52.538;13.400;2024-02-23T14:05:46;10.10;99.90
2112;DHT22;1062;52.538;13.400;2024-02-23T14:08:12;9.90;99.90
2112;DHT22;1062;52.538;13.400;2024-02-23T14:10:38;9.90;99.90
2112;DHT22;1062;52.538;13.400;2024-02-23T14:13:05;10.00;99.90
2112;DHT22;1062;52.538;13.400;2024-02-23T14:15:31;9.80;99.90
2112;DHT22;1062;52.538;13.400;2024-02-23T14:17:56;9.80;99.90
2112;DHT22;1062;52.538;13.400;2024-02-23T14:20:22;9.90;99.90
2112;DHT22;1062;52.538;13.400;2024-02-23T14:22:47;9.90;99.90
2112;DHT22;1062;52.538;13.400;2024-02-23T14:25:15;9.90;99.90
2112;DHT22;1062;52.538;13.400;2024-02-23T14:27:41;9.80;99.90
2112;DHT22;1062;52.538;13.400;2024-02-23T14:30:07;9.70;99.90
2112;DHT22;1062;52.538;13.400;2024-02-23T14:32:33;9.70;99.90
2112;DHT22;1062;52.538;13.400;2024-02-23T14:35:01;9.60;99.90
2112;DHT22;1062;52.538;13.400;2024-02-23T14:37:28;9.60;99.90
2112;DHT22;1062;52.538;13.400;2024-02-23T14:39:54;9.40;99.90
2112;DHT22;1062;52.538;13.400;2024-02-23T14:42:20;9.50;99.90
2112;DHT22;1062;52.538;13.400;2024-02-23T14:44:45;9.50;99.90
2112;DHT22;1062;52.538;13.400;2024-02-23T14:47:11;9.40;99.90
2112;DHT22;1062;52.538;13.400;2024-02-23T14:49:38;9.40;99.90
2112;DHT22;1062;52.538;13.400;2024-02-23T14:52:04;9.40;99.90
2112;DHT22;1062;52.538;13.400;2024-02-23T14:54:29;9.40;99.90
2112;DHT22;1062;52.538;13.400;2024-02-23T14:56:55;9.30;99.90
2112;DHT22;1062;52.538;13.400;2024-02-23T14:59:20;9.30;99.90
2112;DHT22;1062;52.538;13.400;2024-02-23T15:01:46;9.40;99.90
2112;DHT22;1062;52.538;13.400;2024-02-23T15:04:12;9.40;99.90
2112;DHT22;1062;52.538;13.400;2024-02-23T15:06:38;9.30;99.90
2112;DHT22;1062;52.538;13.400;2024-02-23T15:09:04;9.30;99.90
2112;DHT22;1062;52.538;13.400;2024-02-23T15:11:30;9.20;99.90
2112;DHT22;1062;52.538;13.400;2024-02-23T15:13:56;9.30;99.90
2112;DHT22;1062;52.538;13.400;2024-02-23T15:16:27;9.20;99.90
2112;DHT22;1062;52.538;13.400;2024-02-23T15:18:53;9.30;99.90
2112;DHT22;1062;52.538;13.400;2024-02-23T15:21:19;9.30;99.90
2112;DHT22;1062;52.538;13.400;2024-02-23T15:23:45;9.10;99.90
2112;DHT22;1062;52.538;13.400;2024-02-23T15:26:11;9.10;99.90
2112;DHT22;1062;52.538;13.400;2024-02-23T15:28:39;9.10;99.90
2112;DHT22;1062;52.538;13.400;2024-02-23T15:31:05;9.10;99.90
2112;DHT22;1062;52.538;13.400;2024-02-23T15:33:30;9.10;99.90
2112;DHT22;1062;52.538;13.400;2024-02-23T15:35:56;9.00;99.90
2112;DHT22;1062;52.538;13.400;2024-02-23T15:38:22;9.00;99.90
2112;DHT22;1062;52.538;13.400;2024-02-23T15:40:48;9.00;99.90
2112;DHT22;1062;52.538;13.400;2024-02-23T15:43:14;8.90;99.90
2112;DHT22;1062;52.538;13.400;2024-02-23T15:45:40;8.90;99.90